16:36
Airports
Links
Donate
Help keep this website running!
PayPal
Bitcoin
METAR
RKJK 231623Z AUTO 12004KT 3SM R36/4000FT BR OVC006 20/20 A3000 RMK AO2 SLP163 $
Current Weather Conditions at RKJK
IFR 16:23:00 23-09-17
Automated station, no observer
Altimeter:30.00 hg
Temp:20.0°c 68°f
Dew point:20.0°c 68°f
Wind:4 knots, 4.6 mph, 2 m/s, from 120°
Visibility:3.0 statute miles
600(OVC) Overcast
Past METAR reports
IFR 15:58:00 23-09-17
Automated station, no observer
Altimeter:30.01 hg
Temp:20.4°c 68°f
Dew point:20.4°c 68°f
Wind:3 knots, 3.5 mph, 2 m/s, from 120°
Visibility:4.0 statute miles
700(OVC) Overcast
RKJK 231558Z AUTO 12003KT 4SM R36/4500FT BR OVC007 20/20 A3001 RMK AO2 SLP166 T02040204 $
IFR 15:54:00 23-09-17
Automated station, no observer
Altimeter:30.01 hg
Temp:20.0°c 68°f
Dew point:20.0°c 68°f
Wind:4 knots, 4.6 mph, 2 m/s, from 110°
Visibility:4.0 statute miles
700(OVC) Overcast
RKJK 231554Z AUTO 11004KT 4SM R36/4500FT BR OVC007 20/20 A3001 RMK AO2 SLP166 $
IFR 15:44:00 23-09-17
Automated station, no observer
Altimeter:30.01 hg
Temp:21.0°c 70°f
Dew point:21.0°c 70°f
Wind:3 knots, 3.5 mph, 2 m/s, from 130°
Visibility:5.0 statute miles
600(OVC) Overcast
RKJK 231544Z AUTO 13003KT 5SM R36/4500FT BR OVC006 21/21 A3001 RMK AO2 OVC V BKN SLP166
IFR 15:25:00 23-09-17
Automated station, no observer
Altimeter:30.01 hg
Temp:21.0°c 70°f
Dew point:21.0°c 70°f
Wind:3 knots, 3.5 mph, 2 m/s, from 170°
Visibility:5.0 statute miles
600(BKN) Broken
RKJK 231525Z AUTO 17003KT 5SM R36/5000FT BR BKN006 21/21 A3001 RMK AO2 BKN V FEW SLP166 $
VFR 15:15:00 23-09-17
Automated station, no observer
Altimeter:30.00 hg
Temp:21.0°c 70°f
Dew point:21.0°c 70°f
Wind:0 knots, 0 mph, 0 m/s,
Variable direction
Visibility:6.0 statute miles
700(FEW) A few
RKJK 231515Z AUTO 00000KT 6SM R36/5000FT BR FEW007 21/21 A3000 RMK AO2 SLP163
VFR 14:58:00 23-09-17
Automated station, no observer
Altimeter:30.01 hg
Temp:20.9°c 68°f
Dew point:20.9°c 68°f
Wind:5 knots, 5.8 mph, 3 m/s, from 170°
Visibility:6.0 statute miles
(CLR) Clear
RKJK 231458Z AUTO 17005KT 6SM R36/5000FT BR CLR 21/21 A3001 RMK AO2 SLP166 T02090209 402460165 55002 $
TAF
TAF AMD RKJK 231610Z 2316/2421 VRB06KT 6000 BR OVC007 QNH2998INS TEMPO 2316/2320 OVC006 BECMG 2320/2321 VRB03KT 4800 BR OVC007 QNH3000INS TEMPO 2321/2323 3200 BR BECMG 2401/2402 VRB06KT 9999 NSW SCT025 QNH2995INS BECMG 2414/2415 VRB03KT 8000 BR SKC QNH2997INS TX25/2406Z TN17/2321Z
Forecast at RKJK
TEMPO 16:00 23-09-17 to 20:00 23-09-17
600OVC Overcast
16:00 23-09-17 to 20:00 23-09-17
BR
Wind:6 Knots from 360°
Visibility:3.73 statute miles
700OVC Overcast
BECMG 20:00 23-09-17 to 01:00 24-09-17
BR
Wind:3 Knots from 360°
Visibility:2.98 statute miles
700OVC Overcast
TEMPO 21:00 23-09-17 to 23:00 23-09-17
BR
Visibility:1.99 statute miles
BECMG 01:00 24-09-17 to 14:00 24-09-17
NSW
Wind:6 Knots from 360°
Visibility:6.21 statute miles
2500SCT Scattered
BECMG 14:00 24-09-17 to 21:00 24-09-17
BR
Wind:3 Knots from 360°
Visibility:4.97 statute miles
SKC Clear